createdAt,value
2017-08-14T00:00:06.949Z,4.13
2017-08-14T00:02:34.396Z,6.30
2017-08-14T00:05:01.845Z,4.00
2017-08-14T00:07:29.313Z,5.07
2017-08-14T00:09:56.780Z,5.47
2017-08-14T00:12:24.226Z,5.13
2017-08-14T00:14:51.724Z,6.00
2017-08-14T00:17:19.176Z,7.43
2017-08-14T00:19:46.641Z,6.63
2017-08-14T00:22:14.085Z,7.33
2017-08-14T00:24:41.539Z,5.63
2017-08-14T00:27:09.001Z,6.57
2017-08-14T00:29:36.479Z,6.60
2017-08-14T00:32:03.921Z,5.77
2017-08-14T00:34:31.382Z,4.67
2017-08-14T00:36:58.831Z,5.50
2017-08-14T00:39:26.280Z,5.30
2017-08-14T00:41:53.763Z,6.20
2017-08-14T00:44:21.215Z,6.30
2017-08-14T00:46:48.692Z,5.93
2017-08-14T00:49:16.142Z,5.60
2017-08-14T00:51:43.596Z,6.80
2017-08-14T00:56:47.677Z,7.00
2017-08-14T00:59:15.148Z,6.23
2017-08-14T01:01:42.599Z,6.67
2017-08-14T01:04:10.074Z,8.00
2017-08-14T01:06:37.524Z,8.67
2017-08-14T01:09:05.004Z,5.80
2017-08-14T01:11:32.461Z,6.70
2017-08-14T01:13:59.928Z,5.90
2017-08-14T01:16:27.411Z,6.93
2017-08-14T01:18:54.868Z,5.67
2017-08-14T01:21:22.348Z,7.00
2017-08-14T01:23:49.793Z,5.13
2017-08-14T01:26:17.271Z,6.50
2017-08-14T01:28:44.753Z,6.20
2017-08-14T01:31:12.243Z,5.90
2017-08-14T01:33:39.704Z,6.30
2017-08-14T01:36:07.153Z,7.53
2017-08-14T01:38:34.633Z,7.27
2017-08-14T01:41:02.090Z,6.53
2017-08-14T01:43:29.573Z,4.97
2017-08-14T01:45:57.013Z,5.80
2017-08-14T01:48:24.469Z,6.80
2017-08-14T01:50:51.954Z,7.23
2017-08-14T01:53:19.412Z,7.50
2017-08-14T01:55:46.869Z,6.63
2017-08-14T01:58:14.344Z,7.80
2017-08-14T02:00:41.796Z,7.87
2017-08-14T02:03:09.252Z,6.43
2017-08-14T02:05:36.716Z,6.63
2017-08-14T02:08:04.171Z,5.43
2017-08-14T02:10:31.652Z,6.97
2017-08-14T02:12:59.131Z,5.70
2017-08-14T02:15:26.580Z,5.87
2017-08-14T02:17:54.029Z,5.07
2017-08-14T02:20:21.500Z,5.90
2017-08-14T02:22:48.948Z,5.27
2017-08-14T02:25:16.420Z,5.93
2017-08-14T02:27:43.878Z,6.60
2017-08-14T02:30:11.329Z,5.57
2017-08-14T02:32:38.810Z,6.07
2017-08-14T02:35:06.252Z,4.80
2017-08-14T02:37:33.720Z,5.80
2017-08-14T02:40:01.161Z,4.50
2017-08-14T02:42:28.638Z,5.07
2017-08-14T02:44:56.112Z,5.60
2017-08-14T02:47:23.556Z,5.30
2017-08-14T02:49:51.032Z,5.77
2017-08-14T02:52:18.485Z,5.20
2017-08-14T02:54:45.940Z,6.23
2017-08-14T02:57:13.407Z,6.23
2017-08-14T02:59:40.854Z,4.47
2017-08-14T03:02:08.325Z,5.83
2017-08-14T03:04:35.785Z,4.20
2017-08-14T03:07:03.254Z,5.57
2017-08-14T03:09:30.740Z,5.07
2017-08-14T03:11:58.212Z,3.67
2017-08-14T03:14:25.653Z,4.80
2017-08-14T03:16:53.127Z,4.07
2017-08-14T03:19:20.569Z,3.80
2017-08-14T03:21:48.072Z,4.03
2017-08-14T03:24:15.538Z,3.90
2017-08-14T03:26:42.988Z,3.50
2017-08-14T03:29:10.457Z,4.13
2017-08-14T03:31:37.914Z,4.13
2017-08-14T03:34:05.361Z,3.33
2017-08-14T03:36:32.834Z,3.97
2017-08-14T03:39:00.292Z,4.00
2017-08-14T03:41:27.760Z,4.60
2017-08-14T03:43:55.211Z,3.40
2017-08-14T03:46:22.695Z,3.97
2017-08-14T03:48:50.148Z,5.20
2017-08-14T03:51:17.591Z,4.27
2017-08-14T03:53:45.052Z,4.23
2017-08-14T03:56:12.510Z,3.60
2017-08-14T03:58:39.982Z,4.63
2017-08-14T04:01:07.426Z,4.60
2017-08-14T04:03:34.896Z,4.77
2017-08-14T04:06:02.346Z,4.17
2017-08-14T04:08:29.789Z,4.53
2017-08-14T04:10:57.267Z,4.90
2017-08-14T04:13:24.717Z,3.40
2017-08-14T04:15:52.209Z,5.03
2017-08-14T04:18:19.650Z,5.10
2017-08-14T04:20:47.090Z,3.30
2017-08-14T04:23:14.569Z,3.73
2017-08-14T04:25:42.005Z,3.53
2017-08-14T04:28:09.453Z,3.37
2017-08-14T04:30:36.912Z,3.77
2017-08-14T04:33:04.358Z,4.00
2017-08-14T04:35:31.820Z,3.77
2017-08-14T04:37:59.263Z,4.43
2017-08-14T04:40:26.731Z,3.27
2017-08-14T04:42:54.172Z,3.97
2017-08-14T04:45:21.621Z,4.47
2017-08-14T04:47:49.100Z,3.60
2017-08-14T04:50:16.554Z,4.17
2017-08-14T04:52:44.000Z,3.43
2017-08-14T04:55:11.472Z,6.30
2017-08-14T04:57:38.922Z,4.83
2017-08-14T05:00:06.376Z,6.23
2017-08-14T05:02:33.825Z,5.83
2017-08-14T05:05:01.297Z,6.17
2017-08-14T05:07:28.748Z,5.93
2017-08-14T05:09:56.194Z,6.57
2017-08-14T05:12:23.664Z,7.53
2017-08-14T05:14:51.108Z,7.70
2017-08-14T05:17:18.592Z,6.63
2017-08-14T05:19:46.039Z,5.07
2017-08-14T05:22:13.488Z,5.93
2017-08-14T05:24:40.968Z,7.97
2017-08-14T05:27:08.436Z,9.10
2017-08-14T05:29:35.885Z,10.30
2017-08-14T05:32:03.373Z,11.40
2017-08-14T05:34:30.824Z,11.20
2017-08-14T05:36:58.293Z,11.43
2017-08-14T05:39:25.780Z,10.63
2017-08-14T05:41:53.240Z,11.00
2017-08-14T05:44:20.693Z,11.67
2017-08-14T05:46:48.196Z,8.67
2017-08-14T05:49:15.668Z,8.60
2017-08-14T05:51:43.113Z,7.93
2017-08-14T05:54:10.586Z,5.70
2017-08-14T05:56:38.061Z,6.40
2017-08-14T05:59:05.518Z,4.70
2017-08-14T06:01:32.970Z,4.40
2017-08-14T06:04:00.447Z,4.37
2017-08-14T06:06:27.919Z,4.60
2017-08-14T06:08:55.369Z,3.30
2017-08-14T06:11:22.833Z,3.93
2017-08-14T06:13:50.299Z,3.80
2017-08-14T06:16:17.741Z,3.20
2017-08-14T06:18:45.213Z,3.10
2017-08-14T06:21:12.652Z,3.70
2017-08-14T06:23:40.099Z,3.60
2017-08-14T06:26:07.576Z,4.97
2017-08-14T06:28:35.022Z,4.73
2017-08-14T06:31:02.480Z,4.53
2017-08-14T06:33:29.954Z,4.07
2017-08-14T06:35:57.402Z,4.67
2017-08-14T06:38:24.853Z,3.93
2017-08-14T06:40:52.333Z,4.20
2017-08-14T06:43:19.782Z,5.20
2017-08-14T06:48:23.987Z,5.67
2017-08-14T06:50:51.442Z,6.20
2017-08-14T06:53:18.898Z,6.00
2017-08-14T06:55:46.368Z,4.93
2017-08-14T06:58:13.812Z,3.97
2017-08-14T07:00:41.262Z,3.90
2017-08-14T07:03:08.765Z,4.00
2017-08-14T07:05:36.244Z,3.60
2017-08-14T07:08:03.691Z,3.27
2017-08-14T07:10:31.169Z,3.13
2017-08-14T07:12:58.615Z,2.47
2017-08-14T07:15:26.061Z,2.90
2017-08-14T07:17:53.548Z,3.50
2017-08-14T07:20:20.998Z,3.63
2017-08-14T07:22:48.440Z,3.20
2017-08-14T07:25:15.904Z,3.23
2017-08-14T07:27:43.345Z,3.27
2017-08-14T07:30:10.784Z,2.53
2017-08-14T07:32:38.257Z,2.70
2017-08-14T07:35:05.724Z,2.77
2017-08-14T07:37:33.168Z,2.00
2017-08-14T07:40:00.636Z,2.60
2017-08-14T07:42:28.096Z,3.20
2017-08-14T07:44:55.554Z,2.37
2017-08-14T07:47:23.019Z,3.60
2017-08-14T07:49:50.492Z,2.53
2017-08-14T07:52:17.935Z,1.93
2017-08-14T07:54:45.404Z,2.43
2017-08-14T07:57:12.853Z,2.20
2017-08-14T07:59:40.299Z,2.87
2017-08-14T08:02:07.772Z,2.80
2017-08-14T08:04:35.223Z,2.63
2017-08-14T08:07:02.672Z,2.60
2017-08-14T08:09:30.142Z,2.73
2017-08-14T08:11:57.591Z,2.40
2017-08-14T08:14:25.037Z,2.30
2017-08-14T08:16:52.508Z,2.23
2017-08-14T08:19:19.948Z,2.73
2017-08-14T08:21:47.410Z,2.40
2017-08-14T08:24:14.959Z,2.90
2017-08-14T08:26:42.416Z,2.30
2017-08-14T08:29:09.864Z,4.90
2017-08-14T08:31:37.337Z,3.23
2017-08-14T08:34:04.796Z,6.30
2017-08-14T08:36:32.285Z,2.70
2017-08-14T08:38:59.734Z,3.10
2017-08-14T08:41:27.180Z,2.67
2017-08-14T08:43:54.666Z,1.67
2017-08-14T08:46:22.109Z,2.40
2017-08-14T08:48:49.864Z,1.77
2017-08-14T08:51:17.329Z,1.93
2017-08-14T08:53:44.797Z,2.83
2017-08-14T08:56:12.269Z,2.73
2017-08-14T08:58:39.716Z,1.90
2017-08-14T09:01:07.162Z,1.77
2017-08-14T09:03:34.635Z,2.13
2017-08-14T09:06:02.168Z,1.40
2017-08-14T09:08:29.612Z,2.40
2017-08-14T09:10:57.076Z,2.20
2017-08-14T09:13:25.413Z,3.03
2017-08-14T09:15:52.856Z,2.00
2017-08-14T09:18:20.342Z,2.50
2017-08-14T09:20:47.796Z,1.70
2017-08-14T09:23:15.233Z,1.67
2017-08-14T09:25:42.704Z,2.43
2017-08-14T09:28:10.146Z,2.13
2017-08-14T09:30:37.590Z,2.27
2017-08-14T09:33:05.058Z,1.60
2017-08-14T09:35:32.498Z,2.00
2017-08-14T09:37:59.969Z,1.83
2017-08-14T09:40:27.419Z,1.20
2017-08-14T09:42:54.860Z,1.43
2017-08-14T09:45:22.330Z,1.70
2017-08-14T09:47:49.781Z,2.57
2017-08-14T09:50:17.232Z,2.87
2017-08-14T09:52:44.694Z,1.73
2017-08-14T09:55:12.168Z,1.40
2017-08-14T09:57:39.604Z,1.47
2017-08-14T10:00:07.037Z,1.53
2017-08-14T10:02:34.504Z,1.63
2017-08-14T10:05:01.968Z,1.60
2017-08-14T10:07:29.433Z,2.03
2017-08-14T10:09:56.918Z,1.80
2017-08-14T10:12:24.369Z,1.70
2017-08-14T10:14:51.814Z,1.60
2017-08-14T10:17:19.297Z,1.20
2017-08-14T10:19:46.750Z,1.80
2017-08-14T10:22:14.193Z,1.43
2017-08-14T10:24:41.661Z,2.00
2017-08-14T10:27:09.112Z,1.93
2017-08-14T10:29:36.566Z,1.30
2017-08-14T10:32:04.033Z,1.80
2017-08-14T10:34:31.477Z,1.50
2017-08-14T10:36:58.950Z,1.47
2017-08-14T10:39:26.397Z,1.50
2017-08-14T10:41:53.865Z,1.77
2017-08-14T10:44:21.305Z,1.87
2017-08-14T10:46:48.753Z,2.40
2017-08-14T10:49:16.219Z,1.77
2017-08-14T10:51:43.693Z,1.47
2017-08-14T10:54:11.139Z,1.20
2017-08-14T10:56:38.584Z,1.50
2017-08-14T10:59:06.800Z,1.30
2017-08-14T11:01:34.255Z,2.03
2017-08-14T11:04:01.715Z,1.67
2017-08-14T11:06:29.160Z,1.60
2017-08-14T11:08:56.628Z,1.47
2017-08-14T11:11:24.074Z,1.30
2017-08-14T11:13:51.528Z,1.20
2017-08-14T11:16:18.989Z,1.43
2017-08-14T11:18:46.464Z,1.30
2017-08-14T11:21:13.921Z,1.20
2017-08-14T11:23:41.355Z,1.63
2017-08-14T11:26:08.835Z,1.13
2017-08-14T11:28:36.310Z,1.23
2017-08-14T11:31:03.780Z,0.90
2017-08-14T11:33:31.219Z,1.30
2017-08-14T11:35:58.689Z,1.00
2017-08-14T11:38:26.177Z,1.40
2017-08-14T11:40:53.618Z,1.20
2017-08-14T11:43:21.096Z,1.70
2017-08-14T11:45:48.537Z,1.40
2017-08-14T11:48:16.009Z,0.90
2017-08-14T11:50:43.468Z,1.53
2017-08-14T11:53:10.924Z,1.63
2017-08-14T11:55:38.421Z,0.90
2017-08-14T11:58:05.916Z,1.43
2017-08-14T12:00:33.361Z,1.30
2017-08-14T12:03:00.810Z,1.00
2017-08-14T12:05:28.280Z,0.73
2017-08-14T12:07:55.724Z,1.20
2017-08-14T12:10:23.173Z,0.80
2017-08-14T12:12:50.637Z,1.10
2017-08-14T12:15:18.086Z,0.90
2017-08-14T12:17:45.525Z,1.10
2017-08-14T12:20:13.001Z,1.27
2017-08-14T12:22:40.446Z,1.50
2017-08-14T12:25:07.913Z,1.20
2017-08-14T12:27:35.363Z,1.00
2017-08-14T12:30:02.829Z,1.07
2017-08-14T12:32:30.275Z,1.13
2017-08-14T12:34:57.724Z,0.77
2017-08-14T12:37:25.189Z,1.10
2017-08-14T12:39:52.637Z,1.13
2017-08-14T12:42:20.105Z,1.10
2017-08-14T12:44:47.564Z,0.90
2017-08-14T12:47:15.020Z,1.37
2017-08-14T12:49:42.518Z,1.20
2017-08-14T12:52:09.965Z,0.90
2017-08-14T12:54:37.430Z,0.93
2017-08-14T12:57:04.881Z,0.90
2017-08-14T12:59:32.357Z,0.80
2017-08-14T13:01:59.796Z,0.90
2017-08-14T13:04:27.259Z,0.90
2017-08-14T13:06:54.699Z,0.80
2017-08-14T13:09:22.157Z,1.00
2017-08-14T13:11:49.621Z,1.00
2017-08-14T13:14:17.071Z,0.70
2017-08-14T13:16:44.510Z,0.90
2017-08-14T13:19:11.990Z,0.80
2017-08-14T13:21:39.439Z,0.97
2017-08-14T13:24:06.926Z,1.20
2017-08-14T13:26:34.419Z,1.50
2017-08-14T13:29:01.864Z,0.90
2017-08-14T13:31:29.312Z,1.20
2017-08-14T13:33:56.785Z,1.10
2017-08-14T13:36:24.225Z,1.53
2017-08-14T13:38:51.710Z,0.80
2017-08-14T13:41:19.152Z,2.30
2017-08-14T13:43:46.620Z,1.23
2017-08-14T13:46:14.061Z,0.90
2017-08-14T13:48:41.949Z,0.90
2017-08-14T13:51:09.426Z,0.80
2017-08-14T13:53:36.898Z,0.70
2017-08-14T13:56:04.363Z,1.30
2017-08-14T13:58:31.808Z,0.93
2017-08-14T14:00:59.295Z,1.90
2017-08-14T14:03:26.743Z,0.73
2017-08-14T14:05:54.190Z,0.80
2017-08-14T14:08:21.648Z,1.07
2017-08-14T14:10:49.095Z,0.70
2017-08-14T14:13:16.562Z,0.93
2017-08-14T14:15:44.013Z,0.90
2017-08-14T14:18:11.449Z,1.10
2017-08-14T14:20:38.921Z,1.10
2017-08-14T14:23:06.373Z,0.90
2017-08-14T14:25:33.852Z,0.80
2017-08-14T14:28:01.304Z,1.20
2017-08-14T14:30:28.769Z,1.47
2017-08-14T14:32:56.213Z,1.20
2017-08-14T14:35:23.685Z,1.00
2017-08-14T14:37:51.128Z,0.97
2017-08-14T14:40:18.585Z,1.23
2017-08-14T14:42:46.065Z,1.23
2017-08-14T14:45:13.512Z,0.90
2017-08-14T14:47:40.953Z,0.80
2017-08-14T14:50:08.437Z,0.97
2017-08-14T14:52:35.882Z,0.80
2017-08-14T14:55:03.348Z,1.10
2017-08-14T14:57:30.798Z,0.80
2017-08-14T14:59:58.264Z,1.30
2017-08-14T15:02:25.729Z,0.90
2017-08-14T15:04:53.177Z,1.30
2017-08-14T15:07:20.640Z,1.80
2017-08-14T15:09:48.093Z,1.70
2017-08-14T15:12:15.536Z,1.60
2017-08-14T15:14:43.028Z,1.47
2017-08-14T15:17:10.502Z,1.00
2017-08-14T15:19:37.941Z,1.43
2017-08-14T15:22:05.396Z,1.00
2017-08-14T15:24:32.869Z,1.00
2017-08-14T15:27:00.316Z,1.40
2017-08-14T15:29:27.781Z,1.10
2017-08-14T15:31:55.264Z,6.77
2017-08-14T15:34:22.712Z,1.80
2017-08-14T15:36:50.169Z,1.33
2017-08-14T15:39:17.633Z,1.20
2017-08-14T15:41:45.082Z,1.43
2017-08-14T15:44:12.553Z,1.00
2017-08-14T15:46:40.030Z,1.20
2017-08-14T15:49:07.499Z,1.20
2017-08-14T15:51:34.969Z,1.20
2017-08-14T15:54:02.478Z,1.70
2017-08-14T15:56:29.943Z,8.73
2017-08-14T15:58:57.381Z,1.53
2017-08-14T16:01:24.893Z,3.23
2017-08-14T16:03:52.346Z,1.30
2017-08-14T16:06:19.816Z,0.87
2017-08-14T16:08:47.285Z,7.67
2017-08-14T16:11:14.748Z,3.60
2017-08-14T16:13:42.193Z,5.30
2017-08-14T16:16:09.689Z,15.87
2017-08-14T16:18:37.181Z,1.23
2017-08-14T16:21:04.670Z,2.00
2017-08-14T16:23:32.126Z,1.67
2017-08-14T16:25:59.569Z,0.77
2017-08-14T16:28:27.045Z,1.40
2017-08-14T16:30:54.492Z,4.07
2017-08-14T16:33:21.992Z,4.60
2017-08-14T16:35:49.467Z,1.30
2017-08-14T16:38:16.917Z,0.70
2017-08-14T16:40:44.381Z,1.00
2017-08-14T16:43:11.876Z,0.90
2017-08-14T16:45:39.336Z,0.97
2017-08-14T16:48:06.776Z,1.50
2017-08-14T16:50:34.256Z,1.27
2017-08-14T16:53:01.706Z,1.10
2017-08-14T16:55:29.177Z,1.00
2017-08-14T16:57:56.625Z,0.80
2017-08-14T17:00:24.070Z,3.07
2017-08-14T17:02:51.538Z,0.83
2017-08-14T17:05:19.021Z,12.33
2017-08-14T17:07:46.500Z,2.33
2017-08-14T17:10:13.944Z,1.00
2017-08-14T17:12:41.417Z,1.23
2017-08-14T17:15:08.912Z,1.40
2017-08-14T17:17:36.353Z,1.70
2017-08-14T17:20:04.681Z,1.10
2017-08-14T17:22:32.176Z,1.27
2017-08-14T17:24:59.652Z,1.03
2017-08-14T17:27:27.112Z,1.10
2017-08-14T17:29:54.577Z,1.30
2017-08-14T17:32:22.038Z,2.27
2017-08-14T17:34:49.490Z,2.30
2017-08-14T17:37:16.934Z,4.60
2017-08-14T17:39:44.425Z,1.50
2017-08-14T17:42:11.872Z,2.43
2017-08-14T17:44:39.345Z,1.83
2017-08-14T17:47:06.790Z,1.27
2017-08-14T17:49:34.244Z,6.13
2017-08-14T17:52:01.714Z,1.87
2017-08-14T17:54:29.154Z,2.20
2017-08-14T17:56:56.625Z,1.97
2017-08-14T17:59:24.099Z,1.40
2017-08-14T18:01:51.580Z,2.03
2017-08-14T18:04:19.024Z,1.87
2017-08-14T18:06:46.502Z,3.47
2017-08-14T18:09:13.952Z,3.47
2017-08-14T18:11:41.440Z,3.27
2017-08-14T18:14:08.899Z,2.20
2017-08-14T18:16:36.343Z,2.40
2017-08-14T18:19:03.822Z,2.37
2017-08-14T18:21:31.286Z,2.27
2017-08-14T18:23:58.759Z,1.90
2017-08-14T18:26:26.209Z,2.63
2017-08-14T18:28:53.699Z,3.47
2017-08-14T18:31:21.139Z,2.30
2017-08-14T18:33:48.589Z,2.13
2017-08-14T18:36:16.094Z,2.40
2017-08-14T18:38:43.543Z,2.60
2017-08-14T18:41:10.984Z,2.53
2017-08-14T18:43:38.461Z,2.50
2017-08-14T18:46:05.904Z,2.07
2017-08-14T18:48:33.358Z,3.87
2017-08-14T18:51:00.828Z,2.93
2017-08-14T18:53:28.273Z,2.03
2017-08-14T18:55:55.750Z,5.70
2017-08-14T18:58:23.220Z,3.40
2017-08-14T19:00:50.682Z,7.23
2017-08-14T19:03:18.226Z,4.47
2017-08-14T19:05:45.672Z,2.57
2017-08-14T19:08:14.657Z,2.13
2017-08-14T19:10:40.652Z,3.50
2017-08-14T19:13:08.098Z,2.47
2017-08-14T19:15:35.569Z,3.10
2017-08-14T19:18:03.018Z,4.67
2017-08-14T19:20:30.493Z,2.60
2017-08-14T19:22:57.937Z,3.67
2017-08-14T19:25:25.384Z,3.03
2017-08-14T19:27:52.858Z,1.57
2017-08-14T19:30:20.305Z,2.10
2017-08-14T19:32:47.753Z,3.90
2017-08-14T19:35:15.217Z,2.30
2017-08-14T19:37:42.673Z,2.27
2017-08-14T19:40:10.141Z,3.00
2017-08-14T19:42:37.614Z,3.30
2017-08-14T19:45:05.061Z,2.20
2017-08-14T19:47:32.528Z,2.37
2017-08-14T19:49:59.977Z,5.43
2017-08-14T19:52:27.423Z,3.97
2017-08-14T19:54:55.789Z,2.77
2017-08-14T19:57:23.233Z,2.80
2017-08-14T19:59:50.682Z,3.77
2017-08-14T20:02:18.149Z,2.80
2017-08-14T20:04:45.593Z,4.60
2017-08-14T20:07:13.057Z,3.80
2017-08-14T20:09:40.500Z,5.27
2017-08-14T20:12:07.961Z,4.60
2017-08-14T20:14:35.410Z,4.30
2017-08-14T20:17:02.895Z,4.57
2017-08-14T20:19:30.345Z,3.03
2017-08-14T20:21:57.792Z,3.70
2017-08-14T20:24:25.261Z,3.23
2017-08-14T20:26:52.714Z,4.30
2017-08-14T20:29:20.186Z,3.60
2017-08-14T20:31:47.652Z,3.00
2017-08-14T20:34:15.095Z,2.83
2017-08-14T20:36:42.566Z,2.33
2017-08-14T20:39:10.043Z,3.00
2017-08-14T20:41:37.501Z,3.57
2017-08-14T20:44:04.969Z,3.30
2017-08-14T20:46:32.436Z,2.77
2017-08-14T20:48:59.881Z,3.67
2017-08-14T20:51:27.323Z,2.97
2017-08-14T20:53:54.796Z,2.57
2017-08-14T20:56:22.237Z,3.00
2017-08-14T20:58:51.508Z,4.13
2017-08-14T21:01:19.074Z,2.83
2017-08-14T21:03:46.523Z,2.80
2017-08-14T21:06:13.974Z,3.50
2017-08-14T21:08:41.444Z,3.23
2017-08-14T21:11:08.904Z,3.53
2017-08-14T21:13:36.378Z,3.77
2017-08-14T21:16:03.841Z,2.47
2017-08-14T21:18:31.286Z,4.00
2017-08-14T21:20:58.773Z,3.83
2017-08-14T21:23:26.220Z,3.70
2017-08-14T21:25:53.680Z,3.87
2017-08-14T21:28:21.159Z,3.37
2017-08-14T21:30:48.606Z,4.00
2017-08-14T21:33:16.054Z,3.27
2017-08-14T21:35:43.534Z,3.10
2017-08-14T21:38:10.994Z,3.27
2017-08-14T21:40:38.462Z,3.53
2017-08-14T21:43:05.913Z,3.30
2017-08-14T21:45:33.381Z,2.80
2017-08-14T21:48:00.847Z,4.17
2017-08-14T21:50:28.293Z,3.90
2017-08-14T21:52:55.761Z,3.60
2017-08-14T21:55:23.205Z,2.77
2017-08-14T21:57:50.650Z,3.47
2017-08-14T22:00:18.122Z,3.00
2017-08-14T22:02:45.568Z,3.80
2017-08-14T22:05:13.045Z,2.40
2017-08-14T22:07:40.502Z,23.30
2017-08-14T22:10:07.950Z,7.70
2017-08-14T22:12:35.414Z,4.83
2017-08-14T22:15:02.852Z,3.53
2017-08-14T22:17:30.326Z,3.23
2017-08-14T22:19:57.786Z,4.37
2017-08-14T22:22:25.266Z,3.70
2017-08-14T22:24:52.715Z,3.30
2017-08-14T22:27:20.180Z,3.80
2017-08-14T22:29:47.646Z,3.67
2017-08-14T22:32:15.092Z,3.37
2017-08-14T22:34:42.573Z,2.30
2017-08-14T22:37:10.017Z,2.63
2017-08-14T22:39:37.468Z,3.50
2017-08-14T22:42:04.928Z,4.80
2017-08-14T22:44:32.385Z,2.90
2017-08-14T22:46:59.864Z,2.60
2017-08-14T22:49:27.317Z,3.50
2017-08-14T22:51:54.764Z,4.80
2017-08-14T22:54:22.234Z,3.57
2017-08-14T22:56:49.684Z,3.70
2017-08-14T22:59:17.150Z,2.90
2017-08-14T23:01:44.606Z,3.30
2017-08-14T23:04:12.051Z,4.00
2017-08-14T23:06:39.523Z,3.57
2017-08-14T23:09:06.969Z,5.17
2017-08-14T23:11:34.451Z,4.10
2017-08-14T23:14:01.904Z,3.70
2017-08-14T23:16:29.348Z,3.47
2017-08-14T23:18:56.826Z,4.83
2017-08-14T23:21:24.273Z,3.60
2017-08-14T23:23:51.753Z,5.00
2017-08-14T23:26:19.198Z,3.80
2017-08-14T23:28:46.673Z,4.03
2017-08-14T23:31:14.140Z,5.50
2017-08-14T23:33:41.609Z,5.07
2017-08-14T23:36:09.056Z,4.93
2017-08-14T23:38:36.499Z,4.30
2017-08-14T23:41:03.963Z,4.37
2017-08-14T23:43:31.410Z,4.10
2017-08-14T23:45:58.853Z,3.60
2017-08-14T23:48:26.326Z,4.20
2017-08-14T23:50:53.769Z,4.40
2017-08-14T23:53:21.237Z,4.60
2017-08-14T23:55:48.708Z,4.57
2017-08-14T23:58:16.153Z,4.20
